Time;durP1;ratioP1;P1;durP2;ratioP2;P2;SDS_P1;SDS_P2;PMS_P1;PMS_P2;Temp;Humidity;BMP_temperature;BMP_pressure;BME280_temperature;BME280_humidity;BME280_pressure;Samples;Min_cycle;Max_cycle;Signal;HPM_P1;HPM_P2
2022/09/22 00:00:25;;;;;;;7.20;6.00;;;;;;;6.00;100.00;100234.02;101071;1331;22510;-36
2022/09/22 00:02:55;;;;;;;9.50;6.00;;;;;;;5.93;100.00;100230.07;101149;1336;22561;-34
2022/09/22 00:05:23;;;;;;;7.00;3.70;;;;;;;5.88;100.00;100232.02;101156;1339;22815;-33
2022/09/22 00:07:51;;;;;;;5.80;4.50;;;;;;;5.85;100.00;100236.15;101099;1328;24242;-37
2022/09/22 00:10:20;;;;;;;4.80;4.30;;;;;;;5.84;100.00;100239.44;101147;1339;24302;-37
2022/09/22 00:12:47;;;;;;;10.10;6.80;;;;;;;5.85;100.00;100241.65;101132;1336;23863;-34
2022/09/22 00:15:13;;;;;;;8.80;5.30;;;;;;;5.85;100.00;100241.45;101135;1318;22507;-34
2022/09/22 00:17:38;;;;;;;29.40;7.80;;;;;;;5.84;100.00;100237.55;101117;1338;22497;-36
2022/09/22 00:20:05;;;;;;;9.90;8.10;;;;;;;5.83;100.00;100230.35;100933;1337;23046;-37
2022/09/22 00:22:31;;;;;;;8.90;6.60;;;;;;;5.82;100.00;100226.27;101116;1326;22900;-36
2022/09/22 00:24:58;;;;;;;19.20;11.30;;;;;;;5.82;100.00;100225.65;101066;1322;23104;-36
2022/09/22 00:27:24;;;;;;;13.30;10.40;;;;;;;5.78;100.00;100223.16;101092;1339;22881;-33
2022/09/22 00:29:50;;;;;;;11.30;8.00;;;;;;;5.73;100.00;100219.88;101118;1336;22503;-36
2022/09/22 00:32:17;;;;;;;9.40;8.40;;;;;;;5.71;100.00;100216.89;101074;1334;22501;-33
2022/09/22 00:34:43;;;;;;;10.40;7.10;;;;;;;5.69;100.00;100216.56;101138;1334;24276;-34
2022/09/22 00:37:09;;;;;;;5.40;3.30;;;;;;;5.66;100.00;100215.92;101086;1328;22754;-34
2022/09/22 00:39:35;;;;;;;5.90;4.70;;;;;;;5.65;100.00;100219.27;101138;1331;22516;-34
2022/09/22 00:42:01;;;;;;;16.90;9.50;;;;;;;5.67;100.00;100219.42;101106;1333;22502;-34
2022/09/22 00:44:33;;;;;;;14.20;11.30;;;;;;;5.71;100.00;100219.92;101085;1332;24307;-36
2022/09/22 00:47:03;;;;;;;15.70;13.00;;;;;;;5.72;100.00;100214.48;101058;1339;22518;-35
2022/09/22 00:49:34;;;;;;;17.40;13.30;;;;;;;5.73;100.00;100218.29;101107;1336;25532;-34
2022/09/22 00:52:00;;;;;;;24.00;21.10;;;;;;;5.74;100.00;100213.63;100757;1331;500918;-34
2022/09/22 00:54:26;;;;;;;12.20;9.90;;;;;;;5.70;100.00;100211.98;101141;1328;22918;-33
2022/09/22 00:56:57;;;;;;;11.30;8.90;;;;;;;5.65;100.00;100209.98;101069;1328;22754;-33
2022/09/22 00:59:23;;;;;;;7.30;6.50;;;;;;;5.61;100.00;100209.67;101127;1334;24295;-35
2022/09/22 01:01:49;;;;;;;6.70;4.80;;;;;;;5.55;100.00;100216.23;101105;1328;22437;-34
2022/09/22 01:04:16;;;;;;;11.40;5.60;;;;;;;5.48;100.00;100212.66;101094;1336;23205;-36
2022/09/22 01:06:42;;;;;;;12.90;8.30;;;;;;;5.49;100.00;100209.15;101056;1311;22485;-35
2022/09/22 01:09:08;;;;;;;24.70;9.00;;;;;;;5.48;100.00;100209.80;101062;1336;22482;-36
2022/09/22 01:11:33;;;;;;;34.60;16.90;;;;;;;5.46;100.00;100205.92;101149;1328;24293;-36
2022/09/22 01:14:03;;;;;;;26.00;16.50;;;;;;;5.41;100.00;100200.19;101089;1336;22522;-37
2022/09/22 01:16:34;;;;;;;29.40;15.00;;;;;;;5.39;100.00;100199.86;101126;1328;25265;-34
2022/09/22 01:19:11;;;;;;;14.60;9.90;;;;;;;5.37;100.00;100201.71;101133;1336;22508;-34
2022/09/22 01:21:42;;;;;;;9.50;6.50;;;;;;;5.32;100.00;100207.73;101088;1336;24285;-36
2022/09/22 01:24:17;;;;;;;10.20;6.30;;;;;;;5.29;100.00;100209.08;101093;1333;22541;-35
2022/09/22 01:26:50;;;;;;;8.60;6.40;;;;;;;5.27;100.00;100208.77;101128;1320;24268;-33
2022/09/22 01:29:26;;;;;;;7.10;5.40;;;;;;;5.23;100.00;100207.52;101114;1332;23902;-33
2022/09/22 01:31:57;;;;;;;11.50;5.50;;;;;;;5.20;100.00;100207.60;101091;1334;24264;-32
2022/09/22 01:34:30;;;;;;;28.40;5.60;;;;;;;5.21;100.00;100207.86;101144;1336;23091;-32
2022/09/22 01:37:03;;;;;;;39.00;7.60;;;;;;;5.22;100.00;100212.77;101088;1336;22823;-33
2022/09/22 01:39:34;;;;;;;6.60;5.20;;;;;;;5.19;100.00;100215.07;100926;1335;22669;-36
2022/09/22 01:42:05;;;;;;;3.80;2.90;;;;;;;5.12;100.00;100217.37;100973;1336;22507;-33
2022/09/22 01:44:34;;;;;;;5.40;4.30;;;;;;;5.05;100.00;100218.99;101118;1336;23952;-36
2022/09/22 01:47:04;;;;;;;9.30;3.60;;;;;;;5.00;100.00;100221.35;101132;1332;24295;-33
2022/09/22 01:49:32;;;;;;;4.70;4.10;;;;;;;5.00;100.00;100221.88;101073;1336;22520;-33
2022/09/22 01:52:00;;;;;;;35.80;4.00;;;;;;;5.00;100.00;100217.51;101086;1336;25232;-34
2022/09/22 01:54:30;;;;;;;16.90;3.30;;;;;;;4.99;100.00;100214.68;101161;1336;22728;-37
2022/09/22 01:56:59;;;;;;;3.50;2.60;;;;;;;4.95;100.00;100211.20;101077;1336;25532;-35
2022/09/22 01:59:27;;;;;;;25.30;5.20;;;;;;;4.91;100.00;100214.03;101117;1328;24468;-33
2022/09/22 02:01:56;;;;;;;5.20;2.80;;;;;;;4.88;100.00;100216.40;101125;1334;22523;-35
2022/09/22 02:04:25;;;;;;;8.10;3.80;;;;;;;4.86;100.00;100216.94;101056;1336;22717;-35
2022/09/22 02:06:55;;;;;;;11.70;3.60;;;;;;;4.83;100.00;100219.89;101053;1328;23097;-32
2022/09/22 02:09:21;;;;;;;29.10;3.30;;;;;;;4.81;100.00;100220.27;101118;1336;24389;-35
2022/09/22 02:11:47;;;;;;;14.00;3.10;;;;;;;4.77;100.00;100218.52;101104;1336;22742;-35
2022/09/22 02:14:13;;;;;;;11.50;2.00;;;;;;;4.74;100.00;100219.00;100820;1331;22871;-35
2022/09/22 02:16:38;;;;;;;13.40;3.50;;;;;;;4.71;100.00;100221.95;101060;1334;23225;-32
2022/09/22 02:19:10;;;;;;;6.20;3.20;;;;;;;4.71;100.00;100220.30;101086;1328;23231;-31
2022/09/22 02:21:37;;;;;;;3.30;2.50;;;;;;;4.67;100.00;100221.89;101071;1336;22505;-35
2022/09/22 02:24:03;;;;;;;10.90;2.00;;;;;;;4.62;100.00;100226.08;100974;1336;22491;-35
2022/09/22 02:26:31;;;;;;;7.70;2.30;;;;;;;4.64;100.00;100230.00;101066;1335;22754;-35
2022/09/22 02:29:01;;;;;;;5.20;3.20;;;;;;;4.66;100.00;100235.39;100933;1336;22874;-35
2022/09/22 02:31:27;;;;;;;6.30;2.50;;;;;;;4.65;100.00;100239.80;101092;1328;22704;-32
2022/09/22 02:33:53;;;;;;;14.30;3.20;;;;;;;4.67;100.00;100241.39;101113;1333;23263;-35
2022/09/22 02:36:28;;;;;;;6.60;3.70;;;;;;;4.70;100.00;100243.66;101124;1334;24499;-33
2022/09/22 02:39:01;;;;;;;6.50;3.00;;;;;;;4.63;100.00;100246.65;101088;1336;24274;-35
2022/09/22 02:41:31;;;;;;;5.10;3.40;;;;;;;4.66;100.00;100246.63;100839;1336;24320;-35
2022/09/22 02:44:02;;;;;;;5.60;4.60;;;;;;;4.68;100.00;100246.29;101111;1328;25269;-32
2022/09/22 02:46:31;;;;;;;3.40;3.10;;;;;;;4.72;100.00;100248.95;101048;1336;22743;-35
2022/09/22 02:48:59;;;;;;;8.80;3.60;;;;;;;4.74;100.00;100253.95;101051;1334;24291;-35
2022/09/22 02:51:25;;;;;;;3.50;2.80;;;;;;;4.75;100.00;100252.91;101052;1335;23226;-31
2022/09/22 02:53:50;;;;;;;7.50;3.40;;;;;;;4.79;100.00;100251.89;101062;1336;22511;-37
2022/09/22 02:56:16;;;;;;;9.90;4.00;;;;;;;4.82;100.00;100255.27;101081;1318;23197;-32
2022/09/22 02:58:41;;;;;;;14.40;7.30;;;;;;;4.82;100.00;100251.91;100894;1336;24833;-32
2022/09/22 03:01:07;;;;;;;13.90;6.70;;;;;;;4.81;100.00;100247.60;101076;1325;23227;-34
2022/09/22 03:03:33;;;;;;;6.60;5.00;;;;;;;4.81;100.00;100253.98;101048;1334;22891;-35
2022/09/22 03:05:58;;;;;;;5.60;5.00;;;;;;;4.81;100.00;100255.05;101052;1328;24347;-32
2022/09/22 03:08:24;;;;;;;4.10;3.40;;;;;;;4.79;100.00;100260.02;101029;1334;23231;-31
2022/09/22 03:10:49;;;;;;;6.60;4.90;;;;;;;4.82;100.00;100263.95;100975;1335;22818;-32
2022/09/22 03:13:15;;;;;;;6.80;5.00;;;;;;;4.87;100.00;100267.77;101039;1334;24440;-32
2022/09/22 03:15:41;;;;;;;8.30;6.50;;;;;;;4.89;100.00;100265.64;100857;1319;25988;-32
2022/09/22 03:18:06;;;;;;;7.70;6.00;;;;;;;4.87;100.00;100266.06;100888;1336;24462;-31
2022/09/22 03:20:31;;;;;;;9.80;6.40;;;;;;;4.84;100.00;100269.31;101125;1334;24922;-35
2022/09/22 03:22:57;;;;;;;14.70;6.60;;;;;;;4.80;100.00;100263.48;101104;1336;24411;-32
2022/09/22 03:25:23;;;;;;;16.80;11.50;;;;;;;4.76;100.00;100261.91;101085;1336;23226;-33
2022/09/22 03:27:49;;;;;;;11.90;9.70;;;;;;;4.71;100.00;100261.67;101088;1320;23007;-35
2022/09/22 03:30:14;;;;;;;9.20;7.20;;;;;;;4.70;100.00;100258.54;101042;1334;22738;-31
2022/09/22 03:32:40;;;;;;;11.60;9.10;;;;;;;4.63;100.00;100258.77;100951;1318;22716;-35
2022/09/22 03:35:06;;;;;;;23.80;17.40;;;;;;;4.58;100.00;100255.89;100872;1328;24289;-32
2022/09/22 03:37:32;;;;;;;22.30;16.40;;;;;;;4.57;100.00;100261.12;100946;1320;23064;-34
2022/09/22 03:39:58;;;;;;;11.30;10.00;;;;;;;4.54;100.00;100254.45;101046;1328;24350;-35
2022/09/22 03:42:24;;;;;;;8.70;7.50;;;;;;;4.51;100.00;100254.00;100807;1336;22742;-32
2022/09/22 03:44:49;;;;;;;21.10;16.70;;;;;;;4.49;100.00;100253.48;101055;1328;23207;-34
2022/09/22 03:47:15;;;;;;;6.30;4.10;;;;;;;4.45;100.00;100254.20;100831;1327;24442;-35
2022/09/22 03:49:40;;;;;;;7.60;6.40;;;;;;;4.43;100.00;100254.54;101054;1320;23105;-34
2022/09/22 03:52:06;;;;;;;8.80;6.40;;;;;;;4.42;100.00;100251.98;101056;1328;23117;-31
2022/09/22 03:54:32;;;;;;;7.90;5.40;;;;;;;4.39;100.00;100250.98;100840;1328;23044;-34
2022/09/22 03:56:57;;;;;;;8.90;6.60;;;;;;;4.38;100.00;100257.63;101083;1328;24235;-35
2022/09/22 03:59:23;;;;;;;8.80;4.90;;;;;;;4.36;100.00;100259.55;101057;1334;24380;-34
2022/09/22 04:01:49;;;;;;;7.70;5.10;;;;;;;4.36;100.00;100259.27;101034;1328;24484;-31
2022/09/22 04:04:14;;;;;;;9.40;7.60;;;;;;;4.36;100.00;100261.69;101022;1334;22865;-34
2022/09/22 04:06:40;;;;;;;8.20;6.20;;;;;;;4.37;100.00;100263.27;101089;1336;23292;-31
2022/09/22 04:09:06;;;;;;;7.50;4.70;;;;;;;4.33;100.00;100265.14;101065;1324;22742;-31
2022/09/22 04:11:31;;;;;;;8.20;5.80;;;;;;;4.30;100.00;100265.11;101036;1328;24478;-35
2022/09/22 04:13:58;;;;;;;9.80;6.90;;;;;;;4.30;100.00;100264.40;100985;1324;23304;-32
2022/09/22 04:16:24;;;;;;;5.10;4.20;;;;;;;4.26;100.00;100268.45;100859;1336;23083;-34
2022/09/22 04:18:49;;;;;;;7.50;5.20;;;;;;;4.22;100.00;100267.56;101073;1331;23183;-33
2022/09/22 04:21:15;;;;;;;10.20;5.80;;;;;;;4.21;100.00;100265.33;101125;1336;24414;-32
2022/09/22 04:23:41;;;;;;;14.90;12.70;;;;;;;4.22;100.00;100264.52;101079;1336;23106;-32
2022/09/22 04:26:06;;;;;;;34.80;21.50;;;;;;;4.26;100.00;100263.52;100996;1328;22707;-32
2022/09/22 04:28:32;;;;;;;12.50;10.40;;;;;;;4.26;100.00;100262.23;101013;1334;22856;-32
2022/09/22 04:30:57;;;;;;;18.50;9.00;;;;;;;4.23;100.00;100258.80;100781;1336;22485;-32
2022/09/22 04:33:23;;;;;;;22.10;5.90;;;;;;;4.21;100.00;100259.64;101074;1336;25475;-32
2022/09/22 04:35:49;;;;;;;12.70;6.40;;;;;;;4.20;100.00;100259.95;101105;1318;22894;-34
2022/09/22 04:38:15;;;;;;;15.40;10.80;;;;;;;4.15;100.00;100261.27;100787;1334;23144;-32
2022/09/22 04:40:40;;;;;;;15.90;8.30;;;;;;;4.10;100.00;100263.48;101042;1334;23223;-35
2022/09/22 04:43:06;;;;;;;18.90;9.30;;;;;;;4.08;100.00;100260.63;101099;1320;22709;-31
2022/09/22 04:45:31;;;;;;;26.30;19.80;;;;;;;4.13;100.00;100260.52;101035;1336;22849;-31
2022/09/22 04:47:57;;;;;;;15.90;10.80;;;;;;;4.16;100.00;100261.30;101049;1327;24215;-34
2022/09/22 04:50:22;;;;;;;9.30;7.20;;;;;;;4.23;100.00;100265.33;101060;1334;23251;-32
2022/09/22 04:52:52;;;;;;;30.40;20.80;;;;;;;4.25;100.00;100266.63;101014;1333;22502;-32
2022/09/22 04:55:18;;;;;;;12.10;9.60;;;;;;;4.27;100.00;100263.58;100808;1336;23307;-34
2022/09/22 04:57:48;;;;;;;16.70;10.30;;;;;;;4.24;100.00;100263.17;101053;1328;24404;-35
2022/09/22 05:00:15;;;;;;;16.70;11.50;;;;;;;4.20;100.00;100265.73;101127;1335;24751;-35
2022/09/22 05:02:41;;;;;;;13.00;9.40;;;;;;;4.26;100.00;100268.95;101069;1336;22739;-32
2022/09/22 05:05:07;;;;;;;13.80;11.00;;;;;;;4.28;100.00;100269.16;100852;1336;23445;-35
2022/09/22 05:07:33;;;;;;;23.40;16.90;;;;;;;4.28;100.00;100273.08;101050;1334;25649;-32
2022/09/22 05:09:58;;;;;;;18.70;15.10;;;;;;;4.31;100.00;100272.63;101043;1328;24778;-35
2022/09/22 05:12:25;;;;;;;13.80;9.70;;;;;;;4.31;100.00;100274.04;100879;1328;24452;-34
2022/09/22 05:14:51;;;;;;;11.20;8.40;;;;;;;4.36;100.00;100278.39;101117;1334;25630;-34
2022/09/22 05:17:17;;;;;;;9.40;6.80;;;;;;;4.40;100.00;100281.71;101102;1334;22742;-30
2022/09/22 05:19:42;;;;;;;13.40;9.60;;;;;;;4.45;100.00;100283.11;101036;1334;22869;-34
2022/09/22 05:22:08;;;;;;;10.60;7.20;;;;;;;4.44;100.00;100287.41;101037;1334;23098;-30
2022/09/22 05:24:34;;;;;;;15.30;8.20;;;;;;;4.46;100.00;100292.59;101033;1336;23053;-32
2022/09/22 05:27:00;;;;;;;7.90;6.40;;;;;;;4.55;100.00;100292.86;101045;1334;24634;-34
2022/09/22 05:29:26;;;;;;;9.10;5.50;;;;;;;4.53;100.00;100293.37;101005;1328;23349;-36
2022/09/22 05:31:52;;;;;;;10.70;8.70;;;;;;;4.59;100.00;100294.08;101104;1334;22581;-32
2022/09/22 05:34:17;;;;;;;14.10;9.90;;;;;;;4.49;100.00;100296.04;100917;1336;22738;-31
2022/09/22 05:36:43;;;;;;;10.20;6.00;;;;;;;4.48;100.00;100294.55;101018;1327;22834;-32
2022/09/22 05:39:09;;;;;;;10.30;7.90;;;;;;;4.49;100.00;100302.23;101031;1318;23515;-32
2022/09/22 05:41:34;;;;;;;13.80;6.90;;;;;;;4.44;100.00;100301.63;101047;1328;23105;-35
2022/09/22 05:44:00;;;;;;;15.10;9.60;;;;;;;4.41;100.00;100304.52;101059;1327;22742;-32
2022/09/22 05:46:26;;;;;;;12.70;6.30;;;;;;;4.42;100.00;100312.70;101090;1334;22709;-34
2022/09/22 05:48:52;;;;;;;12.10;8.00;;;;;;;4.45;100.00;100310.00;101146;1324;23096;-32
2022/09/22 05:51:18;;;;;;;8.20;6.80;;;;;;;4.48;100.00;100312.64;101036;1334;23084;-34
2022/09/22 05:53:43;;;;;;;13.00;10.60;;;;;;;4.56;100.00;100313.30;101010;1336;22892;-35
2022/09/22 05:56:09;;;;;;;15.20;11.40;;;;;;;4.63;100.00;100312.32;101039;1334;25448;-35
2022/09/22 05:58:35;;;;;;;10.00;7.80;;;;;;;4.72;100.00;100315.31;100967;1335;23209;-34
2022/09/22 06:01:03;;;;;;;10.50;8.20;;;;;;;4.79;100.00;100315.38;101080;1334;24352;-35
2022/09/22 06:03:28;;;;;;;7.40;5.50;;;;;;;4.95;100.00;100322.95;101088;1334;23217;-35
2022/09/22 06:05:54;;;;;;;8.20;6.20;;;;;;;5.08;100.00;100329.42;101096;1335;22713;-32
2022/09/22 06:08:20;;;;;;;9.00;6.70;;;;;;;5.25;100.00;100335.21;101088;1328;22751;-32
2022/09/22 06:10:47;;;;;;;6.90;6.00;;;;;;;5.42;100.00;100338.08;100878;1336;22895;-35
2022/09/22 06:13:13;;;;;;;8.10;5.20;;;;;;;5.60;100.00;100348.00;101075;1328;22515;-32
2022/09/22 06:15:38;;;;;;;9.20;7.20;;;;;;;5.77;100.00;100354.58;101055;1335;22855;-35
2022/09/22 06:18:06;;;;;;;7.40;5.80;;;;;;;5.90;100.00;100352.82;101049;1336;23994;-33
2022/09/22 06:20:33;;;;;;;9.90;7.50;;;;;;;6.05;100.00;100356.12;101125;1328;22709;-32
2022/09/22 06:22:58;;;;;;;10.60;7.60;;;;;;;6.25;100.00;100357.96;101056;1335;23097;-32
2022/09/22 06:25:25;;;;;;;10.40;8.60;;;;;;;6.38;100.00;100363.42;100852;1336;22549;-36
2022/09/22 06:27:58;;;;;;;8.00;6.10;;;;;;;6.58;100.00;100365.09;101080;1334;23123;-35
2022/09/22 06:30:24;;;;;;;10.00;5.80;;;;;;;6.58;100.00;100367.02;101084;1336;23893;-32
2022/09/22 06:32:53;;;;;;;9.90;6.90;;;;;;;6.71;100.00;100369.02;101087;1328;22777;-35
2022/09/22 06:35:18;;;;;;;6.70;6.00;;;;;;;6.81;100.00;100367.17;101066;1334;24372;-34
2022/09/22 06:37:46;;;;;;;8.00;6.90;;;;;;;6.91;100.00;100370.44;101023;1336;24298;-36
2022/09/22 06:40:13;;;;;;;7.80;5.50;;;;;;;7.00;100.00;100370.45;101107;1328;24363;-36
2022/09/22 06:42:41;;;;;;;13.20;7.90;;;;;;;7.13;100.00;100373.12;101054;1324;24257;-32
2022/09/22 06:45:07;;;;;;;6.60;5.80;;;;;;;7.11;100.00;100373.36;101006;1334;22873;-33
2022/09/22 06:47:33;;;;;;;7.10;6.10;;;;;;;7.23;100.00;100374.75;100830;1336;23216;-33
2022/09/22 06:50:04;;;;;;;10.60;8.00;;;;;;;7.36;100.00;100379.96;101076;1334;24372;-36
2022/09/22 06:52:31;;;;;;;10.30;7.00;;;;;;;7.47;100.00;100383.25;101017;1328;24591;-34
2022/09/22 06:54:59;;;;;;;6.00;5.10;;;;;;;7.63;100.00;100391.56;100989;1328;23238;-34
2022/09/22 06:57:30;;;;;;;11.10;5.30;;;;;;;7.65;100.00;100392.88;101079;1336;22731;-33
2022/09/22 06:59:55;;;;;;;11.60;6.40;;;;;;;7.77;100.00;100378.88;101078;1328;25663;-34
2022/09/22 07:02:27;;;;;;;5.90;5.00;;;;;;;7.88;100.00;100363.69;100871;1328;23233;-31
2022/09/22 07:04:57;;;;;;;3.10;2.30;;;;;;;8.06;100.00;100339.23;101060;1328;22748;-33
2022/09/22 07:07:26;;;;;;;8.50;5.50;;;;;;;8.21;100.00;100296.59;101084;1328;23464;-33
2022/09/22 07:09:52;;;;;;;5.80;4.50;;;;;;;8.53;100.00;100261.59;101094;1336;26497;-35
2022/09/22 07:12:19;;;;;;;5.70;3.70;;;;;;;8.76;100.00;100237.12;101054;1334;23106;-35
2022/09/22 07:14:48;;;;;;;8.70;5.70;;;;;;;8.90;100.00;100185.41;101091;1321;22751;-35
2022/09/22 07:17:15;;;;;;;10.60;4.20;;;;;;;9.03;100.00;100133.87;101066;1334;23093;-33
2022/09/22 07:19:41;;;;;;;7.60;3.90;;;;;;;9.46;100.00;100145.66;100865;1326;22754;-34
2022/09/22 07:22:07;;;;;;;10.10;5.10;;;;;;;9.74;100.00;100141.67;100994;1328;24379;-34
2022/09/22 07:24:33;;;;;;;4.10;3.30;;;;;;;9.98;100.00;100138.78;101016;1334;24373;-36
2022/09/22 07:27:03;;;;;;;4.00;2.50;;;;;;;10.01;100.00;100130.89;101028;1323;22753;-35
2022/09/22 07:29:28;;;;;;;7.10;3.70;;;;;;;10.21;100.00;100126.05;101058;1327;22732;-33
2022/09/22 07:31:58;;;;;;;7.00;4.10;;;;;;;10.40;100.00;100125.70;101012;1328;22879;-35
2022/09/22 07:34:25;;;;;;;7.70;4.80;;;;;;;10.70;100.00;100143.70;100823;1335;24353;-33
2022/09/22 07:36:51;;;;;;;7.30;5.80;;;;;;;10.71;100.00;100131.23;101060;1335;22836;-34
2022/09/22 07:39:16;;;;;;;4.70;4.10;;;;;;;10.47;100.00;100114.59;101071;1331;24294;-36
2022/09/22 07:41:42;;;;;;;7.00;5.50;;;;;;;10.65;100.00;100114.60;101094;1334;22855;-36
2022/09/22 07:46:38;;;;;;;8.90;5.50;;;;;;;11.05;100.00;100109.55;100815;1328;24372;-34
2022/09/22 07:49:03;;;;;;;10.00;3.10;;;;;;;10.95;100.00;100110.33;101008;1335;22878;-34
2022/09/22 07:51:32;;;;;;;5.20;3.10;;;;;;;11.26;100.00;100112.72;101042;1326;23221;-34
2022/09/22 07:56:29;;;;;;;5.00;2.40;;;;;;;11.39;100.00;100103.51;101097;1328;22596;-34
2022/09/22 07:58:55;;;;;;;2.70;1.80;;;;;;;11.61;100.00;100098.85;101028;1328;24478;-35
2022/09/22 08:01:22;;;;;;;2.10;1.00;;;;;;;11.84;100.00;100096.82;101016;1334;22859;-35
2022/09/22 08:03:49;;;;;;;1.80;1.40;;;;;;;12.07;100.00;100095.90;101095;1335;24380;-34
2022/09/22 08:06:17;;;;;;;1.30;0.80;;;;;;;12.24;100.00;100094.98;101114;1320;23062;-35
2022/09/22 08:08:46;;;;;;;1.70;1.00;;;;;;;12.34;100.00;100097.80;101098;1334;22507;-37
2022/09/22 08:11:13;;;;;;;1.10;0.80;;;;;;;12.22;99.59;100096.61;101030;1334;22750;-37
2022/09/22 08:13:41;;;;;;;2.90;1.10;;;;;;;12.06;99.28;100096.67;101092;1336;24352;-37
2022/09/22 08:16:09;;;;;;;2.10;1.10;;;;;;;11.72;97.55;100095.24;101068;1336;22717;-38
2022/09/22 08:18:35;;;;;;;3.30;0.90;;;;;;;11.90;98.39;100091.33;100914;1313;22754;-35
2022/09/22 08:21:02;;;;;;;2.90;0.70;;;;;;;12.06;97.24;100093.00;101058;1336;25396;-36
2022/09/22 08:23:30;;;;;;;6.70;1.60;;;;;;;12.50;95.46;100096.52;100894;1327;24372;-37
2022/09/22 08:25:58;;;;;;;2.50;0.60;;;;;;;12.70;91.84;100093.30;101074;1334;24503;-32
2022/09/22 08:28:24;;;;;;;0.70;0.40;;;;;;;12.68;88.40;100100.57;101059;1336;23080;-33
2022/09/22 08:30:50;;;;;;;2.70;0.60;;;;;;;12.75;87.03;100100.80;101029;1333;24372;-37
2022/09/22 08:33:15;;;;;;;1.30;0.80;;;;;;;12.84;87.68;100097.23;101044;1328;23099;-36
2022/09/22 08:35:49;;;;;;;1.40;0.60;;;;;;;12.83;85.95;100108.56;101042;1334;22738;-33
2022/09/22 08:38:16;;;;;;;1.30;0.60;;;;;;;13.15;86.51;100102.81;101087;1336;22875;-33
2022/09/22 08:40:42;;;;;;;0.90;0.60;;;;;;;13.57;86.49;100093.89;101051;1334;24433;-33
2022/09/22 08:43:09;;;;;;;1.20;0.50;;;;;;;13.25;81.33;100100.15;100998;1336;22753;-36
2022/09/22 08:45:35;;;;;;;1.00;0.60;;;;;;;13.58;84.87;100092.85;101068;1328;23095;-36
2022/09/22 08:53:11;;;;;;;1.80;0.90;;;;;;;14.46;80.47;100087.26;101089;1336;23232;-34
2022/09/22 08:55:41;;;;;;;1.50;0.60;;;;;;;14.94;80.08;100083.88;101078;1336;22887;-36
2022/09/22 08:58:14;;;;;;;0.80;0.30;;;;;;;15.04;75.70;100088.11;101039;1334;23206;-34
2022/09/22 09:00:42;;;;;;;1.40;0.20;;;;;;;15.01;73.95;100084.79;101043;1336;24270;-34
2022/09/22 09:03:15;;;;;;;1.10;0.40;;;;;;;14.49;72.27;100090.71;101056;1334;22685;-33
2022/09/22 09:05:47;;;;;;;2.00;1.00;;;;;;;14.06;73.50;100086.86;101078;1335;25546;-36
2022/09/22 09:08:16;;;;;;;1.60;0.70;;;;;;;14.23;77.28;100090.85;100968;1329;23926;-34
2022/09/22 09:10:49;;;;;;;1.20;0.60;;;;;;;14.54;74.10;100085.54;101073;1320;22732;-36
2022/09/22 09:13:35;;;;;;;2.90;1.10;;;;;;;14.30;73.77;100086.05;101065;1328;22760;-36
2022/09/22 09:16:12;;;;;;;2.90;0.70;;;;;;;13.69;73.15;100087.52;101013;1328;22732;-34
2022/09/22 09:18:39;;;;;;;2.40;0.30;;;;;;;13.59;74.51;100086.48;101078;1336;22625;-38
2022/09/22 09:21:07;;;;;;;2.10;0.60;;;;;;;13.70;75.78;100083.71;100862;1336;23113;-35
2022/09/22 09:23:38;;;;;;;0.70;0.50;;;;;;;13.92;77.78;100078.98;101105;1334;24364;-37
2022/09/22 09:26:03;;;;;;;1.00;0.40;;;;;;;14.30;74.95;100081.23;100919;1327;25694;-33
2022/09/22 09:28:34;;;;;;;2.40;0.70;;;;;;;14.49;73.69;100084.36;101063;1334;24345;-37
2022/09/22 09:31:08;;;;;;;1.10;0.20;;;;;;;14.92;74.10;100075.30;101062;1335;24319;-37
2022/09/22 09:33:43;;;;;;;0.50;0.30;;;;;;;15.26;70.96;100071.06;101046;1334;22741;-34
2022/09/22 09:36:12;;;;;;;1.00;0.40;;;;;;;15.42;66.88;100080.70;100891;1336;24851;-37
2022/09/22 09:38:46;;;;;;;2.30;0.50;;;;;;;15.84;69.41;100072.89;101091;1328;24411;-34
2022/09/22 09:41:15;;;;;;;0.50;0.30;;;;;;;16.33;67.94;100077.45;101079;1334;22738;-35
2022/09/22 09:43:43;;;;;;;1.00;0.40;;;;;;;16.35;63.99;100074.35;101093;1335;25249;-34
2022/09/22 09:46:13;;;;;;;1.20;0.50;;;;;;;15.75;63.37;100070.55;101046;1334;23247;-37
2022/09/22 09:48:59;;;;;;;0.50;0.30;;;;;;;15.57;66.26;100075.88;100891;1336;23100;-38
2022/09/22 09:51:25;;;;;;;0.80;0.40;;;;;;;15.59;67.11;100073.79;101092;1336;24031;-34
2022/09/22 09:53:51;;;;;;;0.90;0.50;;;;;;;15.40;65.56;100071.55;101062;1327;23329;-33
2022/09/22 09:56:22;;;;;;;0.80;0.40;;;;;;;15.32;66.79;100070.39;100831;1336;22871;-33
2022/09/22 10:01:23;;;;;;;0.40;0.30;;;;;;;16.17;67.83;100072.54;101040;1318;24373;-36
2022/09/22 10:03:53;;;;;;;1.00;0.40;;;;;;;16.52;65.97;100068.20;101051;1334;23084;-34
2022/09/22 10:06:24;;;;;;;0.30;0.20;;;;;;;16.90;62.39;100065.11;100849;1336;25264;-37
2022/09/22 10:08:50;;;;;;;1.30;0.40;;;;;;;16.82;59.86;100074.60;101044;1327;22520;-36
2022/09/22 10:11:24;;;;;;;0.10;0.10;;;;;;;16.49;62.80;100070.02;101056;1328;22709;-36
2022/09/22 10:13:49;;;;;;;2.90;0.50;;;;;;;16.81;61.39;100060.45;100989;1335;22540;-34
2022/09/22 10:16:20;;;;;;;0.30;0.30;;;;;;;16.15;59.72;100065.62;100862;1335;23226;-36
2022/09/22 10:18:46;;;;;;;0.50;0.40;;;;;;;15.66;60.91;100059.98;101042;1328;22509;-36
2022/09/22 10:21:17;;;;;;;0.50;0.40;;;;;;;14.93;63.82;100063.98;101026;1334;22962;-33
2022/09/22 10:23:45;;;;;;;1.30;0.60;;;;;;;14.74;66.60;100066.15;101013;1335;22749;-34
2022/09/22 10:26:29;;;;;;;1.30;0.50;;;;;;;14.49;67.89;100064.23;101101;1328;22885;-36
2022/09/22 10:29:02;;;;;;;0.40;0.20;;;;;;;14.49;67.09;100066.27;100887;1336;22738;-34
2022/09/22 10:31:28;;;;;;;1.70;0.60;;;;;;;14.63;68.93;100059.22;101098;1335;22911;-36
2022/09/22 10:33:56;;;;;;;1.00;0.40;;;;;;;15.03;67.60;100061.65;100874;1336;23193;-34
2022/09/22 10:36:24;;;;;;;0.60;0.10;;;;;;;15.43;66.96;100056.88;100819;1336;24318;-34
2022/09/22 10:38:50;;;;;;;1.20;0.30;;;;;;;16.05;63.86;100058.46;100830;1336;22745;-37
2022/09/22 10:41:18;;;;;;;8.70;0.20;;;;;;;15.71;62.02;100056.42;101062;1335;23080;-34
2022/09/22 10:43:49;;;;;;;0.50;0.30;;;;;;;15.35;63.44;100052.20;100897;1336;25250;-34
2022/09/22 10:46:21;;;;;;;1.30;0.60;;;;;;;15.13;64.00;100054.73;100983;1328;22488;-33
2022/09/22 10:48:52;;;;;;;0.70;0.50;;;;;;;14.87;64.30;100052.13;101068;1334;22869;-33
2022/09/22 10:51:24;;;;;;;0.00;0.00;;;;;;;15.05;64.91;100052.59;101082;1328;22624;-36
2022/09/22 10:53:57;;;;;;;0.30;0.20;;;;;;;15.13;63.65;100049.58;101098;1336;22506;-33
2022/09/22 10:56:43;;;;;;;;;;;;;;;14.99;63.21;100053.99;100886;1320;22611;-34
2022/09/22 10:59:13;;;;;;;0.40;0.20;;;;;;;14.78;63.32;100053.17;101052;1334;22771;-36
2022/09/22 11:01:46;;;;;;;1.70;0.30;;;;;;;14.64;65.09;100051.45;101066;1328;22500;-33
2022/09/22 11:04:18;;;;;;;0.10;0.10;;;;;;;14.01;65.92;100049.97;101090;1336;22511;-36
2022/09/22 11:14:37;;;;;;;0.30;0.30;;;;;;;13.49;69.56;100051.21;101018;1334;23286;-35
2022/09/22 11:17:09;;;;;;;0.40;0.40;;;;;;;13.40;70.08;100051.66;101106;1324;22517;-36
2022/09/22 11:19:43;;;;;;;0.60;0.20;;;;;;;13.56;71.20;100046.68;101055;1328;25221;-33
2022/09/22 11:22:19;;;;;;;0.70;0.20;;;;;;;13.60;70.50;100048.56;101058;1334;22589;-33
2022/09/22 11:25:10;;;;;;;1.10;0.30;;;;;;;13.75;67.60;100041.45;100909;1336;26488;-33
2022/09/22 11:27:39;;;;;;;0.40;0.30;;;;;;;14.45;67.73;100032.73;101096;1336;24477;-36
2022/09/22 11:30:10;;;;;;;1.90;0.30;;;;;;;15.38;66.03;100028.77;101086;1334;22880;-34
2022/09/22 11:32:47;;;;;;;1.20;0.40;;;;;;;15.84;64.16;100031.18;100919;1324;23097;-33
2022/09/22 11:35:21;;;;;;;0.50;0.40;;;;;;;15.75;61.99;100030.45;101016;1335;22758;-36
2022/09/22 11:37:57;;;;;;;2.10;0.70;;;;;;;15.74;62.91;100032.59;101026;1332;24361;-37